sensor_id;sensor_type;location;lat;lon;timestamp;pressure;altitude;pressure_sealevel;temperature;humidity
51439;BME280;38816;51.142;-0.974;2023-03-03T00:01:13;101176.00;;;2.16;100.00
51439;BME280;38816;51.142;-0.974;2023-03-03T00:03:39;101171.97;;;2.20;100.00
51439;BME280;38816;51.142;-0.974;2023-03-03T00:06:09;101169.66;;;2.23;100.00
51439;BME280;38816;51.142;-0.974;2023-03-03T00:08:35;101164.94;;;2.16;100.00
51439;BME280;38816;51.142;-0.974;2023-03-03T00:11:01;101164.09;;;2.28;100.00
51439;BME280;38816;51.142;-0.974;2023-03-03T00:13:30;101178.72;;;2.33;100.00
51439;BME280;38816;51.142;-0.974;2023-03-03T00:18:46;101169.66;;;2.23;100.00
51439;BME280;38816;51.142;-0.974;2023-03-03T00:21:24;101171.41;;;2.24;100.00
51439;BME280;38816;51.142;-0.974;2023-03-03T00:23:51;101178.44;;;2.28;100.00
51439;BME280;38816;51.142;-0.974;2023-03-03T00:26:21;101190.63;;;2.34;100.00
51439;BME280;38816;51.142;-0.974;2023-03-03T00:28:52;101185.75;;;2.37;100.00
51439;BME280;38816;51.142;-0.974;2023-03-03T00:31:28;101182.44;;;2.38;100.00
51439;BME280;38816;51.142;-0.974;2023-03-03T00:34:14;101177.19;;;2.35;100.00
51439;BME280;38816;51.142;-0.974;2023-03-03T00:36:47;101191.22;;;2.43;100.00
51439;BME280;38816;51.142;-0.974;2023-03-03T00:41:53;101195.84;;;2.48;100.00
51439;BME280;38816;51.142;-0.974;2023-03-03T00:47:29;101192.22;;;2.45;100.00
51439;BME280;38816;51.142;-0.974;2023-03-03T00:53:05;101187.06;;;2.43;100.00
51439;BME280;38816;51.142;-0.974;2023-03-03T00:55:33;101193.75;;;2.43;100.00
51439;BME280;38816;51.142;-0.974;2023-03-03T00:57:58;101174.44;;;2.45;100.00
51439;BME280;38816;51.142;-0.974;2023-03-03T01:00:24;101191.94;;;2.53;100.00
51439;BME280;38816;51.142;-0.974;2023-03-03T01:02:49;101180.91;;;2.53;100.00
51439;BME280;38816;51.142;-0.974;2023-03-03T01:05:17;101195.03;;;2.63;100.00
51439;BME280;38816;51.142;-0.974;2023-03-03T01:07:42;101200.13;;;2.63;100.00
51439;BME280;38816;51.142;-0.974;2023-03-03T01:10:08;101187.63;;;2.52;100.00
51439;BME280;38816;51.142;-0.974;2023-03-03T01:12:34;101197.88;;;2.54;100.00
51439;BME280;38816;51.142;-0.974;2023-03-03T01:14:59;101203.91;;;2.56;100.00
51439;BME280;38816;51.142;-0.974;2023-03-03T01:17:24;101197.88;;;2.54;100.00
51439;BME280;38816;51.142;-0.974;2023-03-03T01:19:50;101188.50;;;2.53;100.00
51439;BME280;38816;51.142;-0.974;2023-03-03T01:22:15;101186.56;;;2.49;100.00
51439;BME280;38816;51.142;-0.974;2023-03-03T01:24:41;101216.91;;;2.61;100.00
51439;BME280;38816;51.142;-0.974;2023-03-03T01:27:06;101202.25;;;2.57;100.00
51439;BME280;38816;51.142;-0.974;2023-03-03T01:29:31;101206.38;;;2.54;100.00
51439;BME280;38816;51.142;-0.974;2023-03-03T01:31:57;101216.03;;;2.60;100.00
51439;BME280;38816;51.142;-0.974;2023-03-03T01:34:23;101216.03;;;2.60;100.00
51439;BME280;38816;51.142;-0.974;2023-03-03T01:36:48;101210.28;;;2.63;100.00
51439;BME280;38816;51.142;-0.974;2023-03-03T01:39:14;101211.53;;;2.69;100.00
51439;BME280;38816;51.142;-0.974;2023-03-03T01:41:39;101212.22;;;2.67;100.00
51439;BME280;38816;51.142;-0.974;2023-03-03T01:44:05;101217.97;;;2.64;100.00
51439;BME280;38816;51.142;-0.974;2023-03-03T01:49:17;101220.53;;;2.64;100.00
51439;BME280;38816;51.142;-0.974;2023-03-03T01:51:55;101199.03;;;2.59;100.00
51439;BME280;38816;51.142;-0.974;2023-03-03T01:54:33;101206.00;;;2.62;100.00
51439;BME280;38816;51.142;-0.974;2023-03-03T01:57:02;101199.03;;;2.59;100.00
51439;BME280;38816;51.142;-0.974;2023-03-03T01:59:35;101201.19;;;2.66;100.00
51439;BME280;38816;51.142;-0.974;2023-03-03T02:02:02;101200.41;;;2.67;100.00
51439;BME280;38816;51.142;-0.974;2023-03-03T02:04:28;101202.38;;;2.71;100.00
51439;BME280;38816;51.142;-0.974;2023-03-03T02:06:57;101220.72;;;2.81;100.00
51439;BME280;38816;51.142;-0.974;2023-03-03T02:12:11;101198.25;;;2.73;100.00
51439;BME280;38816;51.142;-0.974;2023-03-03T02:14:37;101208.53;;;2.75;100.00
51439;BME280;38816;51.142;-0.974;2023-03-03T02:17:03;101205.06;;;2.74;100.00
51439;BME280;38816;51.142;-0.974;2023-03-03T02:19:38;101203.31;;;2.87;100.00
51439;BME280;38816;51.142;-0.974;2023-03-03T02:22:06;101201.56;;;2.86;100.00
51439;BME280;38816;51.142;-0.974;2023-03-03T02:24:36;101210.56;;;2.81;100.00
51439;BME280;38816;51.142;-0.974;2023-03-03T02:27:06;101213.59;;;2.88;100.00
51439;BME280;38816;51.142;-0.974;2023-03-03T02:29:31;101212.88;;;2.91;100.00
51439;BME280;38816;51.142;-0.974;2023-03-03T02:31:57;101211.22;;;2.78;100.00
51439;BME280;38816;51.142;-0.974;2023-03-03T02:34:22;101212.31;;;2.82;100.00
51439;BME280;38816;51.142;-0.974;2023-03-03T02:36:48;101212.97;;;2.79;100.00
51439;BME280;38816;51.142;-0.974;2023-03-03T02:39:17;101212.50;;;2.85;100.00
51439;BME280;38816;51.142;-0.974;2023-03-03T02:42:03;101220.50;;;2.91;100.00
51439;BME280;38816;51.142;-0.974;2023-03-03T02:44:31;101214.94;;;2.83;100.00
51439;BME280;38816;51.142;-0.974;2023-03-03T02:46:58;101219.53;;;2.89;100.00
51439;BME280;38816;51.142;-0.974;2023-03-03T02:49:29;101219.13;;;2.83;100.00
51439;BME280;38816;51.142;-0.974;2023-03-03T02:51:56;101220.41;;;2.89;100.00
51439;BME280;38816;51.142;-0.974;2023-03-03T02:54:23;101224.78;;;2.92;100.00
51439;BME280;38816;51.142;-0.974;2023-03-03T02:56:49;101211.44;;;2.94;100.00
51439;BME280;38816;51.142;-0.974;2023-03-03T02:59:15;101208.00;;;2.94;100.00
51439;BME280;38816;51.142;-0.974;2023-03-03T03:01:40;101216.13;;;2.88;100.00
51439;BME280;38816;51.142;-0.974;2023-03-03T03:04:11;101227.16;;;3.02;100.00
51439;BME280;38816;51.142;-0.974;2023-03-03T03:06:37;101213.09;;;2.94;100.00
51439;BME280;38816;51.142;-0.974;2023-03-03T03:09:04;101219.72;;;2.92;100.00
51439;BME280;38816;51.142;-0.974;2023-03-03T03:11:30;101205.47;;;2.81;100.00
51439;BME280;38816;51.142;-0.974;2023-03-03T03:13:56;101217.00;;;2.89;100.00
51439;BME280;38816;51.142;-0.974;2023-03-03T03:16:21;101222.47;;;2.95;100.00
51439;BME280;38816;51.142;-0.974;2023-03-03T03:18:47;101220.50;;;2.91;100.00
51439;BME280;38816;51.142;-0.974;2023-03-03T03:21:14;101236.41;;;3.01;100.00
51439;BME280;38816;51.142;-0.974;2023-03-03T03:23:40;101233.56;;;2.97;100.00
51439;BME280;38816;51.142;-0.974;2023-03-03T03:26:06;101225.19;;;2.98;100.00
51439;BME280;38816;51.142;-0.974;2023-03-03T03:28:32;101227.53;;;2.95;100.00
51439;BME280;38816;51.142;-0.974;2023-03-03T03:30:57;101219.63;;;2.90;100.00
51439;BME280;38816;51.142;-0.974;2023-03-03T03:33:23;101231.66;;;2.93;100.00
51439;BME280;38816;51.142;-0.974;2023-03-03T03:35:49;101220.41;;;2.89;100.00
51439;BME280;38816;51.142;-0.974;2023-03-03T03:38:14;101235.16;;;2.95;100.00
51439;BME280;38816;51.142;-0.974;2023-03-03T03:40:40;101232.53;;;2.93;100.00
51439;BME280;38816;51.142;-0.974;2023-03-03T03:43:06;101236.53;;;2.90;100.00
51439;BME280;38816;51.142;-0.974;2023-03-03T03:45:32;101234.94;;;2.92;100.00
51439;BME280;38816;51.142;-0.974;2023-03-03T03:47:57;101227.25;;;2.90;100.00
51439;BME280;38816;51.142;-0.974;2023-03-03T03:50:22;101226.56;;;2.93;100.00
51439;BME280;38816;51.142;-0.974;2023-03-03T03:52:48;101224.78;;;2.92;100.00
51439;BME280;38816;51.142;-0.974;2023-03-03T03:55:13;101230.75;;;2.92;100.00
51439;BME280;38816;51.142;-0.974;2023-03-03T03:57:39;101214.66;;;2.78;100.00
51439;BME280;38816;51.142;-0.974;2023-03-03T04:00:06;101235.66;;;2.89;100.00
51439;BME280;38816;51.142;-0.974;2023-03-03T04:02:33;101232.91;;;2.99;100.00
51439;BME280;38816;51.142;-0.974;2023-03-03T04:04:59;101227.16;;;3.02;100.00
51439;BME280;38816;51.142;-0.974;2023-03-03T04:07:24;101228.91;;;3.03;100.00
51439;BME280;38816;51.142;-0.974;2023-03-03T04:09:50;101221.50;;;2.93;100.00
51439;BME280;38816;51.142;-0.974;2023-03-03T04:12:16;101215.06;;;2.85;100.00
51439;BME280;38816;51.142;-0.974;2023-03-03T04:14:41;101212.31;;;2.82;100.00
51439;BME280;38816;51.142;-0.974;2023-03-03T04:17:06;101213.75;;;2.91;100.00
51439;BME280;38816;51.142;-0.974;2023-03-03T04:19:32;101227.53;;;2.95;100.00
51439;BME280;38816;51.142;-0.974;2023-03-03T04:21:57;101236.75;;;2.93;100.00
51439;BME280;38816;51.142;-0.974;2023-03-03T04:24:22;101212.00;;;2.90;100.00
51439;BME280;38816;51.142;-0.974;2023-03-03T04:26:48;101217.00;;;2.89;100.00
51439;BME280;38816;51.142;-0.974;2023-03-03T04:29:13;101207.44;;;2.85;100.00
51439;BME280;38816;51.142;-0.974;2023-03-03T04:31:39;101225.97;;;2.97;100.00
51439;BME280;38816;51.142;-0.974;2023-03-03T04:34:04;101227.44;;;2.93;100.00
51439;BME280;38816;51.142;-0.974;2023-03-03T04:36:29;101218.16;;;2.94;100.00
51439;BME280;38816;51.142;-0.974;2023-03-03T04:38:55;101219.03;;;2.94;100.00
51439;BME280;38816;51.142;-0.974;2023-03-03T04:41:20;101215.63;;;2.94;100.00
51439;BME280;38816;51.142;-0.974;2023-03-03T04:43:46;101215.78;;;2.97;100.00
51439;BME280;38816;51.142;-0.974;2023-03-03T04:46:11;101215.13;;;2.99;100.00
51439;BME280;38816;51.142;-0.974;2023-03-03T04:48:37;101224.31;;;2.97;100.00
51439;BME280;38816;51.142;-0.974;2023-03-03T04:51:03;101217.97;;;2.91;100.00
51439;BME280;38816;51.142;-0.974;2023-03-03T04:53:28;101218.16;;;2.94;100.00
51439;BME280;38816;51.142;-0.974;2023-03-03T04:55:54;101210.16;;;2.88;100.00
51439;BME280;38816;51.142;-0.974;2023-03-03T04:58:19;101210.34;;;2.91;100.00
51439;BME280;38816;51.142;-0.974;2023-03-03T05:03:57;101219.91;;;2.95;100.00
51439;BME280;38816;51.142;-0.974;2023-03-03T05:06:22;101212.09;;;2.92;100.00
51439;BME280;38816;51.142;-0.974;2023-03-03T05:08:48;101223.25;;;2.94;100.00
51439;BME280;38816;51.142;-0.974;2023-03-03T05:11:14;101224.03;;;2.93;100.00
51439;BME280;38816;51.142;-0.974;2023-03-03T05:13:39;101221.50;;;2.93;100.00
51439;BME280;38816;51.142;-0.974;2023-03-03T05:16:05;101212.69;;;2.88;100.00
51439;BME280;38816;51.142;-0.974;2023-03-03T05:18:30;101207.13;;;2.93;100.00
51439;BME280;38816;51.142;-0.974;2023-03-03T05:20:56;101214.75;;;2.93;100.00
51439;BME280;38816;51.142;-0.974;2023-03-03T05:23:21;101206.25;;;2.93;100.00
51439;BME280;38816;51.142;-0.974;2023-03-03T05:25:48;101213.19;;;2.95;100.00
51439;BME280;38816;51.142;-0.974;2023-03-03T05:28:13;101208.00;;;2.94;100.00
51439;BME280;38816;51.142;-0.974;2023-03-03T05:30:39;101214.84;;;2.95;100.00
51439;BME280;38816;51.142;-0.974;2023-03-03T05:33:05;101207.44;;;2.85;100.00
51439;BME280;38816;51.142;-0.974;2023-03-03T05:35:30;101211.72;;;2.86;100.00
51439;BME280;38816;51.142;-0.974;2023-03-03T05:37:56;101197.75;;;2.79;100.00
51439;BME280;38816;51.142;-0.974;2023-03-03T05:40:25;101205.66;;;2.84;100.00
51439;BME280;38816;51.142;-0.974;2023-03-03T05:42:50;101217.97;;;2.91;100.00
51439;BME280;38816;51.142;-0.974;2023-03-03T05:45:16;101203.91;;;2.83;100.00
51439;BME280;38816;51.142;-0.974;2023-03-03T05:47:45;101203.81;;;2.81;100.00
51439;BME280;38816;51.142;-0.974;2023-03-03T05:50:10;101216.81;;;2.86;100.00
51439;BME280;38816;51.142;-0.974;2023-03-03T05:52:36;101201.94;;;2.78;100.00
51439;BME280;38816;51.142;-0.974;2023-03-03T05:55:02;101212.59;;;2.86;100.00
51439;BME280;38816;51.142;-0.974;2023-03-03T05:57:27;101207.31;;;2.83;100.00
51439;BME280;38816;51.142;-0.974;2023-03-03T05:59:53;101211.53;;;2.83;100.00
51439;BME280;38816;51.142;-0.974;2023-03-03T06:02:18;101215.94;;;2.85;100.00
51439;BME280;38816;51.142;-0.974;2023-03-03T06:04:44;101215.81;;;2.84;100.00
51439;BME280;38816;51.142;-0.974;2023-03-03T06:07:09;101210.06;;;2.86;100.00
51439;BME280;38816;51.142;-0.974;2023-03-03T06:09:35;101213.47;;;2.87;100.00
51439;BME280;38816;51.142;-0.974;2023-03-03T06:12:01;101207.22;;;2.82;100.00
51439;BME280;38816;51.142;-0.974;2023-03-03T06:14:26;101206.44;;;2.83;100.00
51439;BME280;38816;51.142;-0.974;2023-03-03T06:16:51;101221.28;;;2.90;100.00
51439;BME280;38816;51.142;-0.974;2023-03-03T06:19:17;101213.38;;;2.85;100.00
51439;BME280;38816;51.142;-0.974;2023-03-03T06:21:42;101225.22;;;2.85;100.00
51439;BME280;38816;51.142;-0.974;2023-03-03T06:24:07;101216.00;;;2.87;100.00
51439;BME280;38816;51.142;-0.974;2023-03-03T06:26:33;101228.13;;;2.91;100.00
51439;BME280;38816;51.142;-0.974;2023-03-03T06:28:59;101224.22;;;2.83;100.00
51439;BME280;38816;51.142;-0.974;2023-03-03T06:31:25;101226.16;;;2.87;100.00
51439;BME280;38816;51.142;-0.974;2023-03-03T06:33:51;101232.34;;;2.90;100.00
51439;BME280;38816;51.142;-0.974;2023-03-03T06:36:17;101235.44;;;2.86;100.00
51439;BME280;38816;51.142;-0.974;2023-03-03T06:38:43;101239.84;;;2.89;100.00
51439;BME280;38816;51.142;-0.974;2023-03-03T06:41:08;101236.75;;;2.93;100.00
51439;BME280;38816;51.142;-0.974;2023-03-03T06:43:35;101234.38;;;2.96;100.00
51439;BME280;38816;51.142;-0.974;2023-03-03T06:46:00;101234.06;;;2.91;100.00
51439;BME280;38816;51.142;-0.974;2023-03-03T06:48:26;101244.22;;;2.91;100.00
51439;BME280;38816;51.142;-0.974;2023-03-03T06:50:51;101226.16;;;3.00;100.00
51439;BME280;38816;51.142;-0.974;2023-03-03T06:53:17;101237.31;;;3.02;100.00
51439;BME280;38816;51.142;-0.974;2023-03-03T06:55:43;101231.75;;;2.94;100.00
51439;BME280;38816;51.142;-0.974;2023-03-03T06:58:17;101245.31;;;2.95;100.00
51439;BME280;38816;51.142;-0.974;2023-03-03T07:00:52;101240.22;;;2.95;100.00
51439;BME280;38816;51.142;-0.974;2023-03-03T07:03:24;101253.22;;;2.99;100.00
51439;BME280;38816;51.142;-0.974;2023-03-03T07:05:51;101254.81;;;2.97;100.00
51439;BME280;38816;51.142;-0.974;2023-03-03T07:08:19;101238.66;;;2.97;100.00
51439;BME280;38816;51.142;-0.974;2023-03-03T07:10:47;101252.72;;;3.05;100.00
51439;BME280;38816;51.142;-0.974;2023-03-03T07:13:24;101263.47;;;3.14;100.00
51439;BME280;38816;51.142;-0.974;2023-03-03T07:15:52;101263.66;;;3.17;100.00
51439;BME280;38816;51.142;-0.974;2023-03-03T07:20:49;101256.63;;;3.13;100.00
51439;BME280;38816;51.142;-0.974;2023-03-03T07:23:22;101272.16;;;3.18;100.00
51439;BME280;38816;51.142;-0.974;2023-03-03T07:25:48;101276.44;;;3.19;100.00
51439;BME280;38816;51.142;-0.974;2023-03-03T07:28:27;101275.78;;;3.21;100.00
51439;BME280;38816;51.142;-0.974;2023-03-03T07:30:55;101283.88;;;3.29;100.00
51439;BME280;38816;51.142;-0.974;2023-03-03T07:33:30;101281.44;;;3.30;100.00
51439;BME280;38816;51.142;-0.974;2023-03-03T07:35:59;101278.09;;;3.32;100.00
51439;BME280;38816;51.142;-0.974;2023-03-03T07:38:43;101282.88;;;3.27;100.00
51439;BME280;38816;51.142;-0.974;2023-03-03T07:41:17;101290.00;;;3.33;100.00
51439;BME280;38816;51.142;-0.974;2023-03-03T07:43:48;101295.50;;;3.39;100.00
51439;BME280;38816;51.142;-0.974;2023-03-03T07:46:51;101292.34;;;3.43;100.00
51439;BME280;38816;51.142;-0.974;2023-03-03T07:49:34;101300.94;;;3.45;100.00
51439;BME280;38816;51.142;-0.974;2023-03-03T07:52:01;101302.09;;;3.50;100.00
51439;BME280;38816;51.142;-0.974;2023-03-03T07:54:42;101299.84;;;3.54;100.00
51439;BME280;38816;51.142;-0.974;2023-03-03T07:57:34;101296.22;;;3.51;100.00
51439;BME280;38816;51.142;-0.974;2023-03-03T08:01:24;101311.16;;;3.60;99.96
51439;BME280;38816;51.142;-0.974;2023-03-03T08:02:57;101317.25;;;3.62;100.00
51439;BME280;38816;51.142;-0.974;2023-03-03T08:05:30;101312.84;;;3.59;100.00
51439;BME280;38816;51.142;-0.974;2023-03-03T08:08:29;101317.13;;;3.60;100.00
51439;BME280;38816;51.142;-0.974;2023-03-03T08:10:59;101326.31;;;3.71;99.67
51439;BME280;38816;51.142;-0.974;2023-03-03T08:18:35;101307.16;;;3.63;98.17
51439;BME280;38816;51.142;-0.974;2023-03-03T08:21:08;101325.78;;;3.77;96.35
51439;BME280;38816;51.142;-0.974;2023-03-03T08:23:35;101334.31;;;3.77;97.31
51439;BME280;38816;51.142;-0.974;2023-03-03T08:26:00;101330.19;;;3.79;97.45
51439;BME280;38816;51.142;-0.974;2023-03-03T08:28:26;101321.78;;;3.80;97.76
51439;BME280;38816;51.142;-0.974;2023-03-03T08:30:51;101322.13;;;3.87;96.66
51439;BME280;38816;51.142;-0.974;2023-03-03T08:33:17;101323.00;;;3.87;95.64
51439;BME280;38816;51.142;-0.974;2023-03-03T08:35:44;101333.06;;;3.99;95.02
51439;BME280;38816;51.142;-0.974;2023-03-03T08:38:11;101334.22;;;4.04;94.08
51439;BME280;38816;51.142;-0.974;2023-03-03T08:40:37;101326.06;;;4.10;92.89
51439;BME280;38816;51.142;-0.974;2023-03-03T08:43:02;101349.63;;;4.20;91.74
51439;BME280;38816;51.142;-0.974;2023-03-03T08:45:28;101333.47;;;4.20;90.47
51439;BME280;38816;51.142;-0.974;2023-03-03T08:47:54;101344.28;;;4.30;89.21
51439;BME280;38816;51.142;-0.974;2023-03-03T08:50:21;101347.97;;;4.36;87.94
51439;BME280;38816;51.142;-0.974;2023-03-03T08:52:47;101342.47;;;4.43;89.01
51439;BME280;38816;51.142;-0.974;2023-03-03T08:55:12;101345.22;;;4.46;88.23
51439;BME280;38816;51.142;-0.974;2023-03-03T08:57:38;101340.13;;;4.46;87.67
51439;BME280;38816;51.142;-0.974;2023-03-03T09:00:05;101340.13;;;4.61;88.77
51439;BME280;38816;51.142;-0.974;2023-03-03T09:02:31;101349.97;;;4.69;87.81
51439;BME280;38816;51.142;-0.974;2023-03-03T09:04:56;101344.06;;;4.70;86.68
51439;BME280;38816;51.142;-0.974;2023-03-03T09:07:22;101350.31;;;4.75;86.77
51439;BME280;38816;51.142;-0.974;2023-03-03T09:09:47;101348.91;;;4.80;86.67
51439;BME280;38816;51.142;-0.974;2023-03-03T09:12:18;101344.06;;;4.85;85.41
51439;BME280;38816;51.142;-0.974;2023-03-03T09:14:45;101339.69;;;4.82;85.60
51439;BME280;38816;51.142;-0.974;2023-03-03T09:17:37;101348.25;;;4.99;84.58
51439;BME280;38816;51.142;-0.974;2023-03-03T09:22:49;101340.44;;;5.11;85.32
51439;BME280;38816;51.142;-0.974;2023-03-03T09:27:52;101349.28;;;5.18;84.47
51439;BME280;38816;51.142;-0.974;2023-03-03T09:32:50;101348.94;;;5.26;85.50
51439;BME280;38816;51.142;-0.974;2023-03-03T09:37:51;101358.97;;;5.23;85.06
51439;BME280;38816;51.142;-0.974;2023-03-03T09:43:20;101350.97;;;5.32;83.63
51439;BME280;38816;51.142;-0.974;2023-03-03T09:46:00;101359.00;;;5.40;84.52
51439;BME280;38816;51.142;-0.974;2023-03-03T09:48:47;101365.47;;;5.33;83.43
51439;BME280;38816;51.142;-0.974;2023-03-03T09:51:40;101353.88;;;5.23;85.15
51439;BME280;38816;51.142;-0.974;2023-03-03T09:57:04;101370.47;;;5.31;85.18
51439;BME280;38816;51.142;-0.974;2023-03-03T10:00:08;101366.25;;;5.32;85.97
51439;BME280;38816;51.142;-0.974;2023-03-03T10:03:08;101352.53;;;5.30;85.34
51439;BME280;38816;51.142;-0.974;2023-03-03T10:05:58;101360.28;;;5.31;85.50
51439;BME280;38816;51.142;-0.974;2023-03-03T10:08:57;101379.88;;;5.32;83.66
51439;BME280;38816;51.142;-0.974;2023-03-03T10:17:18;101383.16;;;5.15;83.58
51439;BME280;38816;51.142;-0.974;2023-03-03T10:25:06;101395.19;;;5.03;86.08
51439;BME280;38816;51.142;-0.974;2023-03-03T10:43:58;101402.31;;;5.23;86.62
51439;BME280;38816;51.142;-0.974;2023-03-03T10:52:17;101371.38;;;6.11;82.60
51439;BME280;38816;51.142;-0.974;2023-03-03T10:55:01;101386.53;;;6.40;79.58
51439;BME280;38816;51.142;-0.974;2023-03-03T10:57:35;101381.78;;;6.64;77.86
51439;BME280;38816;51.142;-0.974;2023-03-03T11:06:15;101370.78;;;6.99;72.53
51439;BME280;38816;51.142;-0.974;2023-03-03T11:08:45;101372.44;;;6.99;73.53
51439;BME280;38816;51.142;-0.974;2023-03-03T11:27:58;101397.16;;;6.98;71.12
51439;BME280;38816;51.142;-0.974;2023-03-03T11:33:20;101386.78;;;6.79;72.13
51439;BME280;38816;51.142;-0.974;2023-03-03T11:35:59;101398.78;;;6.80;71.50
51439;BME280;38816;51.142;-0.974;2023-03-03T11:39:09;101395.09;;;6.75;72.25
51439;BME280;38816;51.142;-0.974;2023-03-03T11:41:35;101394.81;;;6.69;71.58
51439;BME280;38816;51.142;-0.974;2023-03-03T11:44:15;101388.19;;;6.56;72.31
51439;BME280;38816;51.142;-0.974;2023-03-03T11:46:47;101398.91;;;6.49;72.62
51439;BME280;38816;51.142;-0.974;2023-03-03T11:57:41;101392.19;;;6.51;75.05
51439;BME280;38816;51.142;-0.974;2023-03-03T12:00:23;101382.44;;;6.44;74.47
51439;BME280;38816;51.142;-0.974;2023-03-03T12:03:11;101385.00;;;6.44;75.31
51439;BME280;38816;51.142;-0.974;2023-03-03T12:13:36;101377.34;;;6.44;74.61
51439;BME280;38816;51.142;-0.974;2023-03-03T12:16:25;101384.34;;;6.48;74.17
51439;BME280;38816;51.142;-0.974;2023-03-03T12:21:31;101375.59;;;6.43;74.78
51439;BME280;38816;51.142;-0.974;2023-03-03T12:24:17;101372.22;;;6.44;74.58
51439;BME280;38816;51.142;-0.974;2023-03-03T12:27:29;101385.66;;;6.40;73.95
51439;BME280;38816;51.142;-0.974;2023-03-03T12:29:41;101385.50;;;6.37;75.01
51439;BME280;38816;51.142;-0.974;2023-03-03T12:32:41;101377.78;;;6.35;75.13
51439;BME280;38816;51.142;-0.974;2023-03-03T12:38:15;101382.78;;;6.33;75.79
51439;BME280;38816;51.142;-0.974;2023-03-03T12:41:08;101371.84;;;6.20;75.61
51439;BME280;38816;51.142;-0.974;2023-03-03T12:43:58;101382.31;;;6.24;75.67
51439;BME280;38816;51.142;-0.974;2023-03-03T12:49:00;101377.44;;;6.13;75.92
51439;BME280;38816;51.142;-0.974;2023-03-03T12:54:34;101379.34;;;6.17;76.66
51439;BME280;38816;51.142;-0.974;2023-03-03T12:57:20;101373.34;;;6.16;76.48
51439;BME280;38816;51.142;-0.974;2023-03-03T13:00:05;101374.91;;;6.13;77.33
51439;BME280;38816;51.142;-0.974;2023-03-03T13:03:00;101376.88;;;6.18;76.59
51439;BME280;38816;51.142;-0.974;2023-03-03T13:11:00;101377.25;;;6.26;76.73
51439;BME280;38816;51.142;-0.974;2023-03-03T13:13:39;101367.78;;;6.23;76.04
51439;BME280;38816;51.142;-0.974;2023-03-03T13:16:11;101360.53;;;6.15;76.01
51439;BME280;38816;51.142;-0.974;2023-03-03T13:19:02;101369.22;;;6.18;75.67
51439;BME280;38816;51.142;-0.974;2023-03-03T13:21:39;101368.25;;;6.16;75.81
51439;BME280;38816;51.142;-0.974;2023-03-03T13:24:23;101366.81;;;6.21;76.36
51439;BME280;38816;51.142;-0.974;2023-03-03T13:27:06;101366.97;;;6.24;75.56
51439;BME280;38816;51.142;-0.974;2023-03-03T13:29:38;101360.19;;;6.25;74.92
51439;BME280;38816;51.142;-0.974;2023-03-03T13:32:16;101361.25;;;6.28;75.61
51439;BME280;38816;51.142;-0.974;2023-03-03T13:37:34;101358.34;;;6.39;75.12
51439;BME280;38816;51.142;-0.974;2023-03-03T13:40:15;101360.50;;;6.47;73.57
51439;BME280;38816;51.142;-0.974;2023-03-03T13:45:24;101349.03;;;6.23;73.90
51439;BME280;38816;51.142;-0.974;2023-03-03T13:50:56;101348.13;;;6.39;74.10
51439;BME280;38816;51.142;-0.974;2023-03-03T13:53:33;101349.06;;;6.57;74.52
51439;BME280;38816;51.142;-0.974;2023-03-03T13:58:55;101338.38;;;6.48;70.94
51439;BME280;38816;51.142;-0.974;2023-03-03T14:06:53;101343.59;;;6.49;72.56
51439;BME280;38816;51.142;-0.974;2023-03-03T14:09:55;101354.03;;;6.54;72.64
51439;BME280;38816;51.142;-0.974;2023-03-03T14:15:15;101346.66;;;6.60;70.31
51439;BME280;38816;51.142;-0.974;2023-03-03T14:20:38;101345.00;;;6.60;70.17
51439;BME280;38816;51.142;-0.974;2023-03-03T14:26:08;101339.75;;;6.57;69.23
51439;BME280;38816;51.142;-0.974;2023-03-03T14:31:24;101335.81;;;6.48;69.33
51439;BME280;38816;51.142;-0.974;2023-03-03T14:34:43;101334.59;;;6.40;69.91
51439;BME280;38816;51.142;-0.974;2023-03-03T14:37:18;101327.09;;;6.26;70.06
51439;BME280;38816;51.142;-0.974;2023-03-03T14:39:49;101337.63;;;6.16;72.19
51439;BME280;38816;51.142;-0.974;2023-03-03T14:47:45;101318.56;;;5.93;73.93
51439;BME280;38816;51.142;-0.974;2023-03-03T14:53:13;101312.88;;;5.99;75.23
51439;BME280;38816;51.142;-0.974;2023-03-03T14:55:42;101312.13;;;6.00;75.80
51439;BME280;38816;51.142;-0.974;2023-03-03T15:01:11;101303.41;;;5.96;75.22
51439;BME280;38816;51.142;-0.974;2023-03-03T15:03:43;101307.28;;;5.90;75.26
51439;BME280;38816;51.142;-0.974;2023-03-03T15:06:11;101318.84;;;5.83;75.93
51439;BME280;38816;51.142;-0.974;2023-03-03T15:08:41;101308.34;;;5.77;76.61
51439;BME280;38816;51.142;-0.974;2023-03-03T15:11:17;101305.16;;;5.81;77.17
51439;BME280;38816;51.142;-0.974;2023-03-03T15:13:43;101302.44;;;5.78;77.66
51439;BME280;38816;51.142;-0.974;2023-03-03T15:16:15;101287.44;;;5.68;79.03
51439;BME280;38816;51.142;-0.974;2023-03-03T15:19:16;101298.28;;;5.64;80.76
51439;BME280;38816;51.142;-0.974;2023-03-03T15:24:36;101295.69;;;5.47;83.80
51439;BME280;38816;51.142;-0.974;2023-03-03T15:27:11;101290.78;;;5.36;84.87
51439;BME280;38816;51.142;-0.974;2023-03-03T15:30:01;101290.97;;;5.39;85.93
51439;BME280;38816;51.142;-0.974;2023-03-03T15:32:55;101292.88;;;5.43;87.37
51439;BME280;38816;51.142;-0.974;2023-03-03T15:35:55;101296.00;;;5.37;89.33
51439;BME280;38816;51.142;-0.974;2023-03-03T15:39:00;101292.56;;;5.37;90.50
51439;BME280;38816;51.142;-0.974;2023-03-03T15:42:01;101284.19;;;5.39;90.75
51439;BME280;38816;51.142;-0.974;2023-03-03T15:44:42;101291.28;;;5.45;90.11
51439;BME280;38816;51.142;-0.974;2023-03-03T15:50:17;101296.50;;;5.46;88.89
51439;BME280;38816;51.142;-0.974;2023-03-03T15:58:47;101306.25;;;5.22;90.63
51439;BME280;38816;51.142;-0.974;2023-03-03T16:01:28;101306.06;;;5.19;91.05
51439;BME280;38816;51.142;-0.974;2023-03-03T16:03:58;101304.56;;;5.08;91.48
51439;BME280;38816;51.142;-0.974;2023-03-03T16:12:15;101313.22;;;4.95;93.24
51439;BME280;38816;51.142;-0.974;2023-03-03T16:17:38;101301.38;;;4.96;93.37
51439;BME280;38816;51.142;-0.974;2023-03-03T16:20:21;101311.91;;;5.02;93.58